Time;durP1;ratioP1;P1;durP2;ratioP2;P2;SDS_P1;SDS_P2;PMS_P1;PMS_P2;Temp;Humidity;BMP_temperature;BMP_pressure;BME280_temperature;BME280_humidity;BME280_pressure;Samples;Min_cycle;Max_cycle;Signal;HPM_P1;HPM_P2
2023/02/23 00:02:20;;;;;;;65.15;30.67;;;;;;;8.97;100.00;101250.50;2614758;36;20099;-54
2023/02/23 00:04:48;;;;;;;75.78;31.83;;;;;;;8.93;100.00;101252.56;2615049;31;20035;-54
2023/02/23 00:07:19;;;;;;;68.60;29.85;;;;;;;9.06;100.00;101260.56;2615178;36;20038;-53
2023/02/23 00:09:47;;;;;;;70.63;31.23;;;;;;;8.84;100.00;101255.94;2614868;36;20035;-59
2023/02/23 00:12:19;;;;;;;77.97;30.83;;;;;;;8.76;100.00;101261.91;2614683;36;20034;-51
2023/02/23 00:14:47;;;;;;;75.05;32.08;;;;;;;8.73;100.00;101262.13;2615848;36;20042;-50
2023/02/23 00:17:16;;;;;;;67.13;29.90;;;;;;;8.87;100.00;101257.56;2615991;36;20423;-55
2023/02/23 00:19:44;;;;;;;70.00;29.33;;;;;;;8.82;100.00;101248.97;2614947;36;20035;-53
2023/02/23 00:22:13;;;;;;;75.18;31.40;;;;;;;8.77;100.00;101255.56;2615503;36;20034;-58
2023/02/23 00:24:42;;;;;;;78.27;32.97;;;;;;;8.91;100.00;101253.66;2615189;36;20069;-52
2023/02/23 00:27:16;;;;;;;71.40;31.00;;;;;;;8.84;100.00;101252.41;2615500;36;20034;-55
2023/02/23 00:29:48;;;;;;;69.57;31.45;;;;;;;8.87;100.00;101252.19;2615403;36;20085;-55
2023/02/23 00:32:18;;;;;;;77.43;30.35;;;;;;;8.76;100.00;101244.94;2613809;36;20034;-51
2023/02/23 00:34:48;;;;;;;75.05;31.60;;;;;;;8.68;100.00;101258.91;2614949;36;20035;-56
2023/02/23 00:37:17;;;;;;;77.80;32.35;;;;;;;8.83;100.00;101258.75;2615623;31;20085;-52
2023/02/23 00:39:46;;;;;;;68.03;31.15;;;;;;;8.78;100.00;101259.09;2614518;36;20038;-52
2023/02/23 00:42:14;;;;;;;72.47;30.65;;;;;;;8.77;100.00;101260.94;2616152;36;20527;-50
2023/02/23 00:44:46;;;;;;;71.95;31.55;;;;;;;8.85;100.00;101259.47;2615526;31;20045;-55
2023/02/23 00:47:17;;;;;;;76.85;32.90;;;;;;;8.86;100.00;101261.19;2615220;36;20034;-52
2023/02/23 00:49:45;;;;;;;71.40;29.75;;;;;;;8.83;100.00;101256.06;2614662;36;20046;-55
2023/02/23 00:52:15;;;;;;;75.32;32.78;;;;;;;8.86;100.00;101250.47;2615696;36;20038;-55
2023/02/23 00:54:44;;;;;;;64.43;29.67;;;;;;;8.82;100.00;101259.72;2614578;36;20535;-57
2023/02/23 00:57:12;;;;;;;68.22;30.13;;;;;;;8.84;100.00;101252.41;2615656;36;20041;-57
2023/02/23 00:59:40;;;;;;;68.65;29.98;;;;;;;8.66;100.00;101251.97;2614936;36;20042;-55
2023/02/23 01:02:09;;;;;;;78.53;30.95;;;;;;;8.67;100.00;101246.50;2615215;36;20045;-53
2023/02/23 01:04:40;;;;;;;73.20;32.17;;;;;;;8.72;100.00;101259.56;2615510;36;20034;-56
2023/02/23 01:07:11;;;;;;;73.97;30.42;;;;;;;8.71;100.00;101253.31;2615619;31;20061;-56
2023/02/23 01:09:40;;;;;;;69.75;30.02;;;;;;;8.76;100.00;101245.78;2614445;31;20038;-57
2023/02/23 01:12:08;;;;;;;70.63;30.33;;;;;;;8.82;100.00;101252.53;2615399;36;20573;-55
2023/02/23 01:14:39;;;;;;;76.38;33.05;;;;;;;8.82;100.00;101257.03;2615624;36;20896;-60
2023/02/23 01:17:07;;;;;;;73.57;30.80;;;;;;;8.76;100.00;101253.00;2612960;36;20138;-54
2023/02/23 01:19:36;;;;;;;77.88;31.30;;;;;;;8.88;100.00;101251.22;2614839;36;20044;-55
2023/02/23 01:22:07;;;;;;;74.97;31.43;;;;;;;8.87;100.00;101252.19;2616031;36;20038;-51
2023/02/23 01:24:37;;;;;;;75.38;31.27;;;;;;;8.75;100.00;101248.59;2616243;36;20282;-55
2023/02/23 01:27:05;;;;;;;70.43;31.30;;;;;;;8.76;100.00;101251.16;2615947;36;20052;-57
2023/02/23 01:29:34;;;;;;;70.13;30.67;;;;;;;8.79;100.00;101249.22;2616474;36;20523;-53
2023/02/23 01:32:02;;;;;;;71.70;31.15;;;;;;;8.81;100.00;101252.66;2616797;36;20488;-54
2023/02/23 01:34:31;;;;;;;75.55;30.52;;;;;;;8.70;100.00;101253.44;2615701;31;20042;-54
2023/02/23 01:36:59;;;;;;;75.15;30.52;;;;;;;8.83;100.00;101256.06;2616323;36;20027;-53
2023/02/23 01:39:30;;;;;;;68.07;27.88;;;;;;;8.86;100.00;101247.78;2616025;31;20038;-55
2023/02/23 01:41:59;;;;;;;76.88;31.67;;;;;;;8.98;100.00;101254.03;2615846;36;20550;-52
2023/02/23 01:44:57;;;;;;;69.53;30.00;;;;;;;8.97;100.00;101247.84;2615990;36;20424;-57
2023/02/23 01:47:26;;;;;;;85.60;31.20;;;;;;;8.83;100.00;101248.00;2616229;36;20574;-53
2023/02/23 01:49:54;;;;;;;77.38;31.15;;;;;;;8.73;100.00;101246.03;2615834;36;20292;-51
2023/02/23 01:52:22;;;;;;;69.93;30.70;;;;;;;8.82;100.00;101254.34;2615977;31;20038;-51
2023/02/23 01:54:57;;;;;;;63.45;29.17;;;;;;;8.84;100.00;101250.56;2615744;36;20038;-56
2023/02/23 01:57:26;;;;;;;71.93;30.85;;;;;;;8.80;100.00;101253.63;2615865;36;20038;-53
2023/02/23 01:59:55;;;;;;;75.75;30.27;;;;;;;8.77;100.00;101244.84;2615918;36;20057;-53
2023/02/23 02:02:31;;;;;;;77.35;31.85;;;;;;;8.70;100.00;101253.44;2611464;31;20034;-55
2023/02/23 02:05:00;;;;;;;67.85;28.80;;;;;;;8.71;100.00;101250.63;2614336;36;20042;-52
2023/02/23 02:07:33;;;;;;;71.68;30.45;;;;;;;8.76;100.00;101253.00;2616553;31;20042;-52
2023/02/23 02:13:04;;;;;;;75.55;30.92;;;;;;;8.82;100.00;101254.34;2616276;36;20146;-54
2023/02/23 02:15:37;;;;;;;71.13;31.27;;;;;;;8.85;100.00;101254.97;2616813;31;20555;-52
2023/02/23 02:18:22;;;;;;;74.97;31.85;;;;;;;8.82;100.00;101254.34;2615418;31;20050;-54
2023/02/23 02:21:18;;;;;;;72.07;28.85;;;;;;;8.89;100.00;101255.59;2616844;31;20067;-59
2023/02/23 02:24:16;;;;;;;81.55;31.90;;;;;;;8.74;100.00;101258.44;2615361;36;20042;-51
2023/02/23 02:27:02;;;;;;;72.63;29.60;;;;;;;8.74;100.00;101257.59;2615483;31;20049;-51
2023/02/23 02:30:01;;;;;;;74.82;31.08;;;;;;;8.77;100.00;101258.25;2616030;36;20034;-51
2023/02/23 02:33:18;;;;;;;74.82;30.00;;;;;;;8.93;100.00;101257.94;2614645;36;20559;-51
2023/02/23 02:36:19;;;;;;;78.10;30.73;;;;;;;8.79;100.00;101258.13;2615618;36;20034;-56
2023/02/23 02:38:57;;;;;;;78.20;30.92;;;;;;;8.86;100.00;101250.47;2615630;36;20037;-50
2023/02/23 02:41:53;;;;;;;74.43;31.45;;;;;;;8.83;100.00;101254.22;2617429;31;20508;-54
2023/02/23 02:44:31;;;;;;;71.95;30.83;;;;;;;8.88;100.00;101248.53;2615492;36;20026;-50
2023/02/23 02:47:07;;;;;;;77.57;32.60;;;;;;;8.88;100.00;101253.91;2615925;36;21094;-50
2023/02/23 02:49:46;;;;;;;71.72;30.38;;;;;;;8.73;100.00;101246.03;2615333;36;20027;-56
2023/02/23 02:52:21;;;;;;;77.00;30.67;;;;;;;8.73;100.00;101251.38;2615999;36;20034;-50
2023/02/23 02:54:55;;;;;;;73.75;29.13;;;;;;;8.82;100.00;101248.97;2614650;31;20045;-57
2023/02/23 02:57:30;;;;;;;76.03;30.42;;;;;;;8.73;100.00;101246.03;2615789;36;20419;-51
2023/02/23 04:17:35;;;;;;;77.57;32.45;;;;;;;8.72;100.00;101287.25;2614717;36;20073;-55
2023/02/23 04:20:03;;;;;;;79.35;30.00;;;;;;;8.74;100.00;101290.66;2615572;36;20038;-54
2023/02/23 04:22:32;;;;;;;76.07;33.00;;;;;;;8.74;100.00;101290.66;2615410;36;20566;-54
2023/02/23 04:25:00;;;;;;;68.72;28.77;;;;;;;8.72;100.00;101291.75;2615835;36;20455;-51
2023/02/23 04:27:28;;;;;;;68.18;29.42;;;;;;;8.71;100.00;101285.53;2615282;36;20045;-52
2023/02/23 04:29:56;;;;;;;85.70;32.63;;;;;;;8.72;100.00;101287.25;2615667;31;20030;-54
2023/02/23 04:32:25;;;;;;;74.05;30.95;;;;;;;8.66;100.00;101292.22;2614654;36;20492;-54
2023/02/23 04:34:56;;;;;;;73.72;29.90;;;;;;;8.64;100.00;101289.63;2615531;36;20049;-55
2023/02/23 04:37:24;;;;;;;81.70;31.75;;;;;;;8.82;100.00;101294.59;2615023;36;20031;-55
2023/02/23 04:39:52;;;;;;;70.78;29.13;;;;;;;8.72;100.00;101292.59;2615494;36;20578;-53
2023/02/23 04:42:21;;;;;;;69.88;29.15;;;;;;;8.81;100.00;101291.06;2615559;36;20034;-52
2023/02/23 04:44:50;;;;;;;73.85;29.55;;;;;;;8.81;100.00;101296.44;2615593;36;20173;-54
2023/02/23 04:47:18;;;;;;;73.07;29.77;;;;;;;8.71;100.00;101301.63;2615003;36;20042;-57
2023/02/23 04:49:53;;;;;;;73.60;30.73;;;;;;;8.68;100.00;101301.00;2615906;36;20034;-51
2023/02/23 04:52:24;;;;;;;76.60;30.25;;;;;;;8.81;100.00;101303.66;2615232;36;20065;-49
2023/02/23 04:56:27;;;;;;;83.53;31.63;;;;;;;8.67;100.00;101294.78;2619092;35;20173;-54
2023/02/23 04:58:56;;;;;;;85.00;32.10;;;;;;;8.67;100.00;101305.53;2619946;31;20073;-51
2023/02/23 05:01:24;;;;;;;76.40;30.58;;;;;;;8.63;100.00;101303.16;2620167;31;20042;-55
2023/02/23 05:03:53;;;;;;;76.47;31.70;;;;;;;8.67;100.00;101305.53;2619049;36;20041;-55
2023/02/23 05:06:21;;;;;;;86.18;33.15;;;;;;;8.57;100.00;101307.16;2620022;36;20492;-55
2023/02/23 05:08:49;;;;;;;86.65;33.60;;;;;;;8.64;100.00;101310.25;2618863;36;20034;-56
2023/02/23 05:11:18;;;;;;;79.53;33.15;;;;;;;8.74;100.00;101311.28;2619041;31;20455;-50
2023/02/23 05:13:49;;;;;;;83.20;33.15;;;;;;;8.65;100.00;101312.81;2617998;36;20045;-56
2023/02/23 05:16:17;;;;;;;86.78;31.75;;;;;;;8.74;100.00;101317.50;2619467;31;20041;-50
2023/02/23 05:18:46;;;;;;;81.90;34.92;;;;;;;8.71;100.00;101317.72;2619295;31;20046;-51
2023/02/23 05:21:15;;;;;;;84.45;33.78;;;;;;;8.64;100.00;101316.44;2619725;36;20030;-54
2023/02/23 05:23:44;;;;;;;81.20;31.88;;;;;;;8.56;100.00;101318.84;2619124;36;20038;-51
2023/02/23 05:26:13;;;;;;;80.40;31.95;;;;;;;8.59;100.00;101318.63;2619778;36;20034;-55
2023/02/23 05:28:44;;;;;;;84.72;32.33;;;;;;;8.57;100.00;101317.91;2619535;36;20057;-56
2023/02/23 05:31:15;;;;;;;78.80;30.02;;;;;;;8.57;100.00;101321.44;2620326;36;20455;-50
2023/02/23 05:33:44;;;;;;;79.47;30.27;;;;;;;8.59;100.00;101324.00;2617363;36;20046;-53
2023/02/23 05:36:15;;;;;;;79.10;29.25;;;;;;;8.57;100.00;101332.16;2619458;36;20075;-54
2023/02/23 05:38:43;;;;;;;82.40;31.55;;;;;;;8.57;100.00;101325.94;2620185;31;20049;-54
2023/02/23 05:41:14;;;;;;;76.15;29.67;;;;;;;8.45;100.00;101316.09;2618686;36;20455;-53
2023/02/23 05:43:43;;;;;;;82.20;30.48;;;;;;;8.52;100.00;101328.94;2617429;36;20030;-57
2023/02/23 05:46:17;;;;;;;76.43;30.70;;;;;;;8.47;100.00;101331.13;2617669;31;20038;-52
2023/02/23 05:48:46;;;;;;;79.93;28.90;;;;;;;8.51;100.00;101331.72;2619208;31;20041;-54
2023/02/23 05:51:16;;;;;;;65.70;26.30;;;;;;;8.42;100.00;101333.22;2618620;36;20050;-54
2023/02/23 05:53:45;;;;;;;71.50;26.42;;;;;;;8.37;100.00;101332.72;2619405;36;20038;-51
2023/02/23 05:56:17;;;;;;;;;;;;;;;8.43;100.00;101329.59;2619990;36;20423;-52
2023/02/23 05:58:46;;;;;;;70.25;27.23;;;;;;;8.44;100.00;101330.47;2616598;36;20045;-55
2023/02/23 06:01:17;;;;;;;70.15;27.60;;;;;;;8.48;100.00;101332.84;2619104;31;20045;-51
2023/02/23 06:03:45;;;;;;;72.07;27.52;;;;;;;8.43;100.00;101334.94;2618915;36;20413;-56
2023/02/23 06:06:14;;;;;;;68.37;26.80;;;;;;;8.44;100.00;101336.69;2617596;31;20026;-55
2023/02/23 06:08:43;;;;;;;66.53;27.97;;;;;;;8.54;100.00;101337.75;2615446;36;20554;-52
2023/02/23 06:11:12;;;;;;;69.95;27.42;;;;;;;8.65;100.00;101336.97;2615650;36;20431;-54
2023/02/23 06:13:40;;;;;;;64.22;24.98;;;;;;;8.55;100.00;101343.97;2615229;36;20026;-55
2023/02/23 06:16:09;;;;;;;65.27;26.23;;;;;;;8.52;100.00;101341.50;2614914;36;20034;-54
2023/02/23 06:18:40;;;;;;;;;;;;;;;8.52;100.00;101344.19;2614914;36;20053;-53
2023/02/23 06:21:09;;;;;;;75.80;27.38;;;;;;;8.44;100.00;101344.75;2615549;36;20335;-54
2023/02/23 06:23:37;;;;;;;63.93;25.37;;;;;;;8.50;100.00;101340.78;2615261;36;20466;-53
2023/02/23 06:26:07;;;;;;;68.90;26.70;;;;;;;8.50;100.00;101346.13;2614934;36;20117;-50
2023/02/23 06:28:35;;;;;;;;;;;;;;;8.52;100.00;101344.19;2615273;36;20039;-52
2023/02/23 06:31:05;;;;;;;64.47;24.85;;;;;;;8.36;100.00;101349.75;2611997;36;19950;-57
2023/02/23 06:33:33;;;;;;;59.55;24.58;;;;;;;8.52;100.00;101354.91;2614737;36;20049;-54
2023/02/23 06:36:05;;;;;;;58.05;24.08;;;;;;;8.44;100.00;101362.66;2615810;36;20037;-54
2023/02/23 06:40:36;;;;;;;66.30;23.83;;;;;;;8.50;100.00;101368.44;2618340;35;20100;-53
2023/02/23 06:43:04;;;;;;;66.55;24.67;;;;;;;8.56;100.00;101361.78;2619651;31;20045;-50
2023/02/23 06:45:33;;;;;;;62.67;24.08;;;;;;;8.58;100.00;101365.19;2618912;36;20038;-53
2023/02/23 06:48:01;;;;;;;59.10;23.15;;;;;;;8.65;100.00;101361.13;2617980;36;20038;-54
2023/02/23 06:50:31;;;;;;;56.08;23.27;;;;;;;8.59;100.00;101361.56;2619474;36;20542;-52
2023/02/23 06:52:59;;;;;;;66.68;25.70;;;;;;;8.59;100.00;101359.72;2618318;36;20038;-54
2023/02/23 06:55:27;;;;;;;63.65;23.80;;;;;;;8.61;100.00;101364.13;2619700;36;20045;-50
2023/02/23 06:57:58;;;;;;;60.42;24.42;;;;;;;8.63;100.00;101371.09;2619759;36;20565;-50
2023/02/23 07:00:29;;;;;;;58.88;23.02;;;;;;;8.65;100.00;101374.53;2618873;36;20053;-51
2023/02/23 07:02:58;;;;;;;52.83;22.23;;;;;;;8.68;100.00;101376.13;2617890;36;20061;-53
2023/02/23 07:05:27;;;;;;;57.35;23.63;;;;;;;8.65;100.00;101376.38;2618395;36;20057;-57
2023/02/23 07:07:55;;;;;;;57.75;24.02;;;;;;;8.70;100.00;101380.44;2619653;31;20141;-55
2023/02/23 07:10:24;;;;;;;56.33;21.92;;;;;;;8.68;100.00;101387.72;2619391;36;20046;-49
2023/02/23 07:12:52;;;;;;;55.38;21.75;;;;;;;8.72;100.00;101394.59;2619459;31;20026;-50
2023/02/23 07:15:23;;;;;;;58.25;23.58;;;;;;;8.72;100.00;101389.22;2619903;36;20045;-53
2023/02/23 07:17:51;;;;;;;57.53;23.75;;;;;;;8.65;100.00;101393.31;2618895;36;20030;-52
2023/02/23 07:20:21;;;;;;;60.28;24.08;;;;;;;8.57;100.00;101407.28;2620569;31;20447;-52
2023/02/23 07:22:49;;;;;;;;;;;;;;;8.70;100.00;101409.06;2620065;36;20073;-52
2023/02/23 07:25:18;;;;;;;59.47;23.35;;;;;;;8.76;100.00;101412.19;2619656;36;19950;-50
2023/02/23 07:27:46;;;;;;;54.97;22.80;;;;;;;8.72;100.00;101416.06;2619830;36;20381;-51
2023/02/23 07:30:18;;;;;;;67.93;25.05;;;;;;;8.70;100.00;101426.06;2619399;36;20412;-50
2023/02/23 07:32:49;;;;;;;59.30;25.40;;;;;;;8.76;100.00;101422.94;2618961;36;20054;-50
2023/02/23 07:35:17;;;;;;;64.63;23.58;;;;;;;8.77;100.00;101426.47;2619630;36;20034;-54
2023/02/23 07:37:46;;;;;;;64.73;23.23;;;;;;;8.71;100.00;101429.59;2619969;36;20046;-50
2023/02/23 07:40:16;;;;;;;58.20;25.17;;;;;;;8.58;100.00;101429.59;2619545;36;20062;-50
2023/02/23 07:42:44;;;;;;;64.60;24.15;;;;;;;8.51;100.00;101437.25;2619294;36;20030;-49
2023/02/23 07:45:13;;;;;;;66.45;24.80;;;;;;;8.48;100.00;101439.28;2619785;36;20065;-50
2023/02/23 07:47:41;;;;;;;71.03;27.70;;;;;;;8.56;100.00;101437.75;2619255;36;20432;-57
2023/02/23 07:50:13;;;;;;;69.80;25.73;;;;;;;8.42;100.00;101441.41;2618724;32;20049;-49
2023/02/23 07:52:43;;;;;;;69.65;25.35;;;;;;;8.41;100.00;101447.72;2616409;36;20547;-50
2023/02/23 07:55:12;;;;;;;71.25;26.20;;;;;;;8.34;100.00;101454.47;2615848;36;20038;-53
2023/02/23 07:57:41;;;;;;;75.03;26.88;;;;;;;8.31;100.00;101449.31;2615153;36;20034;-53
2023/02/23 08:00:11;;;;;;;76.90;27.67;;;;;;;8.30;100.00;101450.28;2615961;36;20042;-51
2023/02/23 08:02:39;;;;;;;72.32;27.42;;;;;;;8.63;100.00;101448.94;2615134;36;20034;-50
2023/02/23 08:05:08;;;;;;;78.35;27.17;;;;;;;8.63;100.00;101453.41;2615868;36;20050;-52
2023/02/23 08:07:39;;;;;;;70.03;26.10;;;;;;;8.83;100.00;101447.47;2616486;36;20034;-50
2023/02/23 08:10:08;;;;;;;73.57;27.55;;;;;;;8.65;100.00;101446.13;2613404;36;20042;-52
2023/02/23 08:12:37;;;;;;;;;;;;;;;8.58;100.00;101445.69;2616175;31;20528;-52
2023/02/23 08:15:07;;;;;;;73.10;26.63;;;;;;;8.79;100.00;101453.19;2615797;36;19954;-53
2023/02/23 08:17:35;;;;;;;72.10;26.40;;;;;;;8.98;100.00;101460.78;2615474;36;20122;-55
2023/02/23 08:20:03;;;;;;;79.07;27.43;;;;;;;9.11;100.00;101453.53;2616801;36;20034;-54
2023/02/23 08:22:40;;;;;;;75.90;26.67;;;;;;;8.93;100.00;101466.47;2616746;54;20077;-54
2023/02/23 08:25:10;;;;;;;69.97;25.75;;;;;;;8.89;100.00;101464.97;2615107;36;20053;-50
2023/02/23 08:27:39;;;;;;;;;;;;;;;9.00;100.00;101467.75;2616443;36;20436;-54
2023/02/23 08:30:08;;;;;;;75.15;25.10;;;;;;;9.07;100.00;101474.41;2614568;36;19970;-55
2023/02/23 08:32:37;;;;;;;73.70;24.52;;;;;;;9.16;100.00;101469.31;2610391;36;20038;-55
2023/02/23 08:35:06;;;;;;;72.57;24.77;;;;;;;9.00;100.00;101473.13;2615815;31;20049;-50
2023/02/23 08:37:35;;;;;;;66.95;24.25;;;;;;;9.00;100.00;101467.75;2615835;36;20162;-53
2023/02/23 08:40:07;;;;;;;67.22;25.23;;;;;;;8.92;100.00;101471.00;2615508;36;20773;-51
2023/02/23 08:42:36;;;;;;;73.65;24.85;;;;;;;8.90;100.00;101474.75;2615706;36;20042;-56
2023/02/23 08:45:04;;;;;;;73.03;24.80;;;;;;;8.99;100.00;101481.28;2615844;36;20034;-52
2023/02/23 08:47:33;;;;;;;62.50;23.42;;;;;;;9.11;100.00;101485.75;2615385;36;20034;-51
2023/02/23 08:50:01;;;;;;;68.00;24.55;;;;;;;9.06;100.00;101482.56;2615824;31;20161;-49
2023/02/23 08:55:27;;;;;;;62.97;23.85;;;;;;;9.23;100.00;101484.00;2617949;36;20716;-57
2023/02/23 08:57:56;;;;;;;59.65;23.80;;;;;;;9.42;100.00;101480.84;2615793;36;20034;-50
2023/02/23 09:00:25;;;;;;;62.95;23.33;;;;;;;9.38;100.00;101479.34;2616272;36;20471;-52
2023/02/23 09:02:53;;;;;;;67.82;24.77;;;;;;;9.38;100.00;101482.91;2615079;36;20732;-51
2023/02/23 09:05:21;;;;;;;61.60;23.07;;;;;;;9.49;100.00;101486.63;2615689;36;20570;-51
2023/02/23 09:07:50;;;;;;;63.28;23.67;;;;;;;9.48;100.00;101491.13;2615863;36;20045;-51
2023/02/23 09:10:23;;;;;;;68.65;25.40;;;;;;;9.30;100.00;101496.03;2614804;36;20045;-51
2023/02/23 09:12:54;;;;;;;63.63;23.88;;;;;;;9.39;100.00;101497.19;2615771;36;20041;-51
2023/02/23 09:15:23;;;;;;;71.63;24.23;;;;;;;9.35;100.00;101496.56;2615956;36;20065;-50
2023/02/23 09:17:53;;;;;;;63.63;23.42;;;;;;;9.51;100.00;101498.13;2616435;31;20041;-53
2023/02/23 09:20:25;;;;;;;59.50;22.77;;;;;;;9.53;100.00;101496.19;2615749;36;20062;-53
2023/02/23 09:22:53;;;;;;;55.35;22.27;;;;;;;9.35;100.00;101501.94;2617252;36;20046;-55
2023/02/23 09:25:30;;;;;;;60.47;22.33;;;;;;;9.33;100.00;101503.88;2615277;54;20034;-52
2023/02/23 09:28:01;;;;;;;65.70;22.45;;;;;;;9.27;100.00;101505.16;2615895;36;20528;-50
2023/02/23 09:30:29;;;;;;;59.83;22.17;;;;;;;9.39;100.00;101516.00;2616096;36;20455;-52
2023/02/23 09:32:58;;;;;;;65.37;23.47;;;;;;;9.37;100.00;101510.72;2615159;36;20034;-55
2023/02/23 09:35:26;;;;;;;57.05;21.38;;;;;;;9.33;100.00;101519.13;2615730;36;20038;-49
2023/02/23 09:37:57;;;;;;;59.10;22.30;;;;;;;9.36;100.00;101516.22;2615562;36;20543;-50
2023/02/23 09:40:28;;;;;;;60.15;21.27;;;;;;;9.31;100.00;101521.09;2614902;36;20037;-55
2023/02/23 09:43:06;;;;;;;67.00;23.05;;;;;;;9.38;100.00;101519.63;2615466;36;20030;-55
2023/02/23 09:45:42;;;;;;;56.70;20.90;;;;;;;9.39;100.00;101516.88;2615573;36;20606;-55
2023/02/23 09:48:17;;;;;;;59.75;21.45;;;;;;;9.41;100.00;101525.66;2614818;36;20033;-52
2023/02/23 09:50:50;;;;;;;60.55;19.88;;;;;;;9.39;100.00;101519.56;2616372;31;20030;-50
2023/02/23 09:53:29;;;;;;;61.05;20.30;;;;;;;9.39;100.00;101527.63;2615670;36;20042;-53
2023/02/23 09:56:00;;;;;;;51.63;20.70;;;;;;;9.52;100.00;101521.34;2615677;36;20042;-54
2023/02/23 09:58:33;;;;;;;53.85;20.27;;;;;;;9.53;100.00;101515.00;2615322;36;20037;-58
2023/02/23 10:01:45;;;;;;;56.13;20.52;;;;;;;9.42;100.00;101522.03;2615508;36;20041;-51
2023/02/23 10:04:21;;;;;;;56.33;19.85;;;;;;;9.37;100.00;101518.78;2616742;36;20404;-53
2023/02/23 10:06:56;;;;;;;61.60;20.38;;;;;;;9.39;100.00;101519.56;2615827;36;20042;-50
2023/02/23 10:09:39;;;;;;;56.60;20.30;;;;;;;9.28;100.00;101519.47;2615380;31;20133;-55
2023/02/23 10:12:11;;;;;;;51.28;18.83;;;;;;;9.28;100.00;101530.22;2615368;31;20034;-51
2023/02/23 10:15:05;;;;;;;52.83;20.77;;;;;;;9.21;100.00;101531.63;2615779;36;20471;-56
2023/02/23 10:17:40;;;;;;;65.05;21.95;;;;;;;9.27;100.00;101533.88;2614874;36;20568;-55
2023/02/23 10:20:19;;;;;;;56.80;21.73;;;;;;;9.38;100.00;101536.63;2615041;36;20038;-55
2023/02/23 10:22:51;;;;;;;61.17;19.58;;;;;;;9.21;100.00;101532.47;2616105;31;20125;-52
2023/02/23 10:25:25;;;;;;;52.72;20.17;;;;;;;9.24;100.00;101536.78;2615118;36;20034;-55
2023/02/23 10:27:57;;;;;;;57.25;20.48;;;;;;;9.34;100.00;101539.66;2615414;36;20026;-55
2023/02/23 10:30:30;;;;;;;52.33;19.17;;;;;;;9.35;100.00;101542.25;2615358;36;20459;-52
2023/02/23 10:33:06;;;;;;;45.45;18.42;;;;;;;9.36;100.00;101548.47;2611721;36;20390;-57
2023/02/23 10:35:35;;;;;;;52.67;18.35;;;;;;;9.43;100.00;101539.84;2615314;36;20033;-56
2023/02/23 10:38:04;;;;;;;50.80;19.02;;;;;;;9.43;100.00;101544.34;2615127;36;20049;-53
2023/02/23 10:40:35;;;;;;;55.20;18.58;;;;;;;9.32;100.00;101539.78;2615317;36;20555;-52
2023/02/23 10:43:03;;;;;;;51.05;18.88;;;;;;;9.46;100.00;101544.97;2615255;31;20034;-53
2023/02/23 10:45:40;;;;;;;51.08;18.67;;;;;;;9.09;100.00;101547.66;2615653;36;20134;-52
2023/02/23 10:48:16;;;;;;;47.90;18.00;;;;;;;9.26;100.00;101559.00;2614233;36;20049;-53
2023/02/23 10:50:45;;;;;;;55.50;19.20;;;;;;;9.18;100.00;101562.25;2615220;36;20034;-57
2023/02/23 10:53:19;;;;;;;48.33;18.17;;;;;;;9.15;100.00;101562.47;2615456;36;20142;-54
2023/02/23 10:55:48;;;;;;;57.40;19.15;;;;;;;9.08;100.00;101572.81;2615410;36;20034;-50
2023/02/23 10:58:18;;;;;;;50.63;18.13;;;;;;;9.12;100.00;101568.91;2614757;36;20035;-55
2023/02/23 11:00:58;;;;;;;46.42;18.88;;;;;;;9.15;100.00;101572.38;2615503;36;20038;-51
2023/02/23 11:03:35;;;;;;;52.70;18.45;;;;;;;9.09;100.00;101570.97;2614545;36;20034;-54
2023/02/23 11:06:03;;;;;;;54.22;19.02;;;;;;;9.10;100.00;101560.13;2614837;31;20045;-54
2023/02/23 11:08:34;;;;;;;49.17;18.17;;;;;;;9.00;100.00;101568.94;2614636;36;20026;-56
2023/02/23 11:11:24;;;;;;;51.47;17.77;;;;;;;8.95;100.00;101566.56;2615457;36;20405;-56
2023/02/23 11:13:53;;;;;;;48.63;17.17;;;;;;;9.12;100.00;101554.63;2615272;36;20524;-52
2023/02/23 11:16:26;;;;;;;50.08;18.23;;;;;;;9.22;100.00;101560.22;2615039;36;20041;-52
2023/02/23 11:18:56;;;;;;;47.53;18.55;;;;;;;9.32;100.00;101569.34;2614548;36;20540;-54
2023/02/23 11:21:28;;;;;;;50.10;17.27;;;;;;;9.41;100.00;101579.41;2615191;36;20049;-52
2023/02/23 11:23:58;;;;;;;51.60;17.17;;;;;;;9.38;100.00;101579.63;2615230;36;20042;-52
2023/02/23 11:26:34;;;;;;;46.03;17.52;;;;;;;9.40;100.00;101574.13;2615254;36;20041;-54
2023/02/23 11:29:11;;;;;;;49.10;18.90;;;;;;;9.42;100.00;101570.38;2614210;36;20035;-50
2023/02/23 11:31:43;;;;;;;46.42;17.52;;;;;;;9.35;100.00;101574.47;2614242;31;20034;-53
2023/02/23 11:34:24;;;;;;;46.05;17.70;;;;;;;9.31;100.00;101570.28;2614044;36;20038;-53
2023/02/23 11:37:02;;;;;;;39.90;16.33;;;;;;;9.24;100.00;101567.16;2615047;36;20038;-50
2023/02/23 11:39:31;;;;;;;43.00;15.02;;;;;;;9.27;100.00;101574.16;2615676;36;20107;-54
2023/02/23 11:42:14;;;;;;;37.88;14.95;;;;;;;9.31;100.00;101572.13;2615162;36;20045;-57
2023/02/23 11:44:43;;;;;;;34.90;14.15;;;;;;;9.42;100.00;101569.50;2615642;36;20142;-56
2023/02/23 11:47:24;;;;;;;40.28;14.93;;;;;;;9.39;100.00;101570.59;2614795;36;20572;-55
2023/02/23 11:49:54;;;;;;;40.38;13.73;;;;;;;9.50;100.00;101577.03;2616134;36;20042;-54
2023/02/23 11:52:23;;;;;;;;;;;;;;;9.58;100.00;101574.63;2616081;36;20039;-58
2023/02/23 11:54:54;;;;;;;;;;;;;;;9.44;100.00;101573.81;2616006;36;19946;-52
2023/02/23 11:57:23;;;;;;;38.03;14.65;;;;;;;9.40;100.00;101566.94;2615755;36;19973;-53
2023/02/23 11:59:52;;;;;;;;;;;;;;;9.33;100.00;101560.28;2615959;36;20041;-52
2023/02/23 12:02:26;;;;;;;42.10;15.60;;;;;;;9.24;100.00;101571.69;2615833;36;19970;-56
2023/02/23 12:05:05;;;;;;;39.95;15.63;;;;;;;9.41;100.00;101578.56;2615967;36;20038;-53
2023/02/23 12:07:40;;;;;;;;;;;;;;;9.47;100.00;101573.56;2615635;36;20058;-58
2023/02/23 12:10:21;;;;;;;47.97;16.70;;;;;;;9.51;100.00;101579.59;2616265;36;19951;-50
2023/02/23 12:12:59;;;;;;;49.72;17.58;;;;;;;9.33;100.00;101580.91;2615797;36;20061;-53
2023/02/23 12:15:39;;;;;;;45.77;17.13;;;;;;;9.44;100.00;101578.34;2615586;36;20034;-54
2023/02/23 12:18:19;;;;;;;51.10;16.70;;;;;;;9.56;100.00;101573.88;2615215;36;21167;-56
2023/02/23 12:20:53;;;;;;;44.80;15.88;;;;;;;9.65;100.00;101573.22;2616217;36;20034;-55
2023/02/23 12:23:26;;;;;;;36.03;15.20;;;;;;;9.70;100.00;101567.50;2615376;31;20143;-49
2023/02/23 12:25:59;;;;;;;44.88;15.75;;;;;;;9.87;100.00;101574.31;2614431;36;20061;-52
2023/02/23 12:28:34;;;;;;;39.30;16.52;;;;;;;9.59;100.00;101574.50;2615025;31;20038;-51
2023/02/23 12:31:06;;;;;;;37.28;15.40;;;;;;;9.58;100.00;101577.31;2615848;36;20622;-56
2023/02/23 12:33:41;;;;;;;32.92;14.43;;;;;;;9.65;100.00;101570.53;2615286;36;20034;-51
2023/02/23 12:36:25;;;;;;;33.88;15.00;;;;;;;9.58;100.00;101578.16;2615755;31;20038;-57
2023/02/23 12:38:58;;;;;;;73.03;32.97;;;;;;;9.43;100.00;101580.13;2615965;36;20030;-56
2023/02/23 12:41:37;;;;;;;35.97;14.40;;;;;;;9.50;100.00;101577.03;2615872;36;20035;-53
2023/02/23 12:44:16;;;;;;;34.55;13.15;;;;;;;9.40;100.00;101580.38;2615303;36;20034;-55
2023/02/23 12:46:50;;;;;;;37.72;14.90;;;;;;;9.53;100.00;101574.13;2615698;36;20038;-53
2023/02/23 12:49:31;;;;;;;34.35;13.82;;;;;;;9.73;100.00;101575.31;2614994;36;20043;-50
2023/02/23 12:52:05;;;;;;;32.03;13.85;;;;;;;9.55;100.00;101577.53;2615488;36;20038;-55
2023/02/23 12:54:34;;;;;;;36.25;15.10;;;;;;;9.33;100.00;101581.78;2615226;36;20034;-54
2023/02/23 12:57:12;;;;;;;42.67;18.02;;;;;;;9.26;100.00;101575.13;2616185;36;20452;-56
2023/02/23 13:00:29;;;;;;;35.72;14.15;;;;;;;9.31;100.00;101572.13;2615945;36;20042;-52
2023/02/23 13:03:26;;;;;;;31.15;12.25;;;;;;;9.49;100.00;101575.31;2614928;31;20034;-52